Terminal Aerodrome Forecast
Issued by NWS

Home | Current Version | Previous Version | Text Only | Print | Product List | Glossary On
Versions: 1 2 3 4 5 6 7 8 9 10 11 12 13 14 15 16 17 18 19 20 21 22 23 24 25 26 27 28 29 30 31 32
000
FTUS45 KGJT 062335
TAFMTJ
TAF
KMTJ 062335Z 0700/0724 33011KT P6SM VCTS FEW045 BKN060CB OVC080
      TEMPO 0700/0702 VRB15G25KT 5SM TSRA BKN045CB
     FM070200 17008KT P6SM VCSH FEW050 BKN090
      TEMPO 0702/0706 -SHRA BKN050
     FM071800 23008KT P6SM VCTS SCT045CB BKN080=

USA.gov is the U.S. government's official web portal to all federal, state and local government web resources and services.